createdAt,value
2024-01-31T00:00:09.497Z,6.30
2024-01-31T00:01:11.564Z,6.20
2024-01-31T00:02:13.694Z,6.20
2024-01-31T00:03:15.636Z,6.20
2024-01-31T00:04:17.725Z,6.10
2024-01-31T00:05:20.005Z,6.10
2024-01-31T00:06:22.086Z,6.10
2024-01-31T00:07:24.100Z,6.00
2024-01-31T00:08:26.168Z,6.00
2024-01-31T00:09:28.114Z,5.90
2024-01-31T00:10:30.364Z,5.90
2024-01-31T00:11:32.295Z,5.90
2024-01-31T00:12:35.159Z,5.80
2024-01-31T00:13:37.158Z,5.80
2024-01-31T00:14:39.213Z,5.80
2024-01-31T00:15:41.174Z,5.80
2024-01-31T00:16:43.708Z,5.80
2024-01-31T00:17:45.733Z,5.80
2024-01-31T00:18:47.886Z,5.90
2024-01-31T00:19:49.917Z,5.90
2024-01-31T00:20:51.983Z,6.00
2024-01-31T00:21:54.071Z,6.00
2024-01-31T00:22:56.009Z,6.00
2024-01-31T00:23:57.974Z,6.00
2024-01-31T00:24:59.969Z,6.10
2024-01-31T00:26:02.091Z,6.10
2024-01-31T00:27:04.198Z,6.10
2024-01-31T00:28:09.014Z,6.10
2024-01-31T00:29:11.029Z,6.10
2024-01-31T00:30:13.538Z,6.10
2024-01-31T00:31:15.646Z,6.10
2024-01-31T00:32:17.581Z,6.20
2024-01-31T00:33:19.628Z,6.20
2024-01-31T00:34:21.786Z,6.10
2024-01-31T00:35:23.765Z,6.20
2024-01-31T00:36:29.503Z,6.20
2024-01-31T00:37:31.485Z,6.20
2024-01-31T00:38:33.468Z,6.20
2024-01-31T00:39:35.660Z,6.10
2024-01-31T00:40:37.778Z,6.10
2024-01-31T00:41:39.841Z,6.10
2024-01-31T00:42:43.471Z,6.00
2024-01-31T00:43:45.795Z,6.00
2024-01-31T00:44:47.872Z,6.00
2024-01-31T00:45:50.035Z,6.00
2024-01-31T00:46:52.177Z,6.00
2024-01-31T00:47:54.168Z,6.10
2024-01-31T00:48:56.896Z,6.10
2024-01-31T00:49:59.453Z,6.10
2024-01-31T00:51:01.383Z,6.10
2024-01-31T00:52:03.355Z,6.10
2024-01-31T00:53:05.390Z,6.20
2024-01-31T00:54:07.623Z,6.20
2024-01-31T00:55:09.861Z,6.20
2024-01-31T00:56:11.938Z,6.20
2024-01-31T00:57:13.868Z,6.10
2024-01-31T00:58:16.291Z,6.20
2024-01-31T00:59:19.459Z,6.20
2024-01-31T01:00:24.419Z,6.10
2024-01-31T01:01:26.400Z,6.20
2024-01-31T01:02:28.447Z,6.20
2024-01-31T01:03:40.943Z,6.20
2024-01-31T01:04:43.549Z,6.20
2024-01-31T01:05:45.578Z,6.20
2024-01-31T01:06:47.573Z,6.20
2024-01-31T01:07:49.933Z,6.20
2024-01-31T01:08:52.140Z,6.20
2024-01-31T01:09:54.041Z,6.20
2024-01-31T01:10:56.870Z,6.30
2024-01-31T01:11:59.004Z,6.30
2024-01-31T01:13:01.022Z,6.30
2024-01-31T01:14:02.950Z,6.30
2024-01-31T01:15:14.845Z,6.40
2024-01-31T01:16:18.247Z,6.30
2024-01-31T01:17:20.262Z,6.40
2024-01-31T01:18:22.287Z,6.30
2024-01-31T01:19:24.322Z,6.30
2024-01-31T01:20:26.453Z,6.30
2024-01-31T01:21:28.430Z,6.30
2024-01-31T01:22:30.463Z,6.30
2024-01-31T01:23:32.544Z,6.30
2024-01-31T01:24:34.618Z,6.30
2024-01-31T01:25:36.591Z,6.30
2024-01-31T01:26:41.954Z,6.30
2024-01-31T01:27:51.928Z,6.40
2024-01-31T01:28:54.076Z,6.30
2024-01-31T01:29:55.989Z,6.30
2024-01-31T01:30:58.096Z,6.40
2024-01-31T01:32:00.057Z,6.30
2024-01-31T01:33:04.465Z,6.30
2024-01-31T01:34:06.539Z,6.30
2024-01-31T01:35:08.547Z,6.30
2024-01-31T01:36:10.539Z,6.30
2024-01-31T01:37:12.463Z,6.30
2024-01-31T01:38:14.434Z,6.30
2024-01-31T01:39:16.324Z,6.30
2024-01-31T01:40:18.419Z,6.40
2024-01-31T01:41:21.064Z,6.40
2024-01-31T01:42:23.048Z,6.40
2024-01-31T01:43:25.598Z,6.40
2024-01-31T01:44:31.116Z,6.40
2024-01-31T01:45:33.122Z,6.40
2024-01-31T01:46:37.295Z,6.40
2024-01-31T01:47:44.164Z,6.40
2024-01-31T01:48:50.570Z,6.40
2024-01-31T01:49:52.647Z,6.40
2024-01-31T01:50:54.715Z,6.40
2024-01-31T01:51:56.754Z,6.40
2024-01-31T01:52:58.848Z,6.40
2024-01-31T01:54:01.504Z,6.40
2024-01-31T01:55:04.561Z,6.40
2024-01-31T01:56:09.980Z,6.40
2024-01-31T01:57:12.222Z,6.40
2024-01-31T01:58:14.419Z,6.40
2024-01-31T01:59:17.406Z,6.40
2024-01-31T02:00:19.657Z,6.50
2024-01-31T02:01:22.615Z,6.40
2024-01-31T02:02:25.530Z,6.40
2024-01-31T02:03:30.682Z,6.40
2024-01-31T02:04:32.760Z,6.40
2024-01-31T02:05:34.918Z,6.40
2024-01-31T02:06:37.461Z,6.40
2024-01-31T02:07:40.878Z,6.40
2024-01-31T02:08:43.322Z,6.40
2024-01-31T02:09:45.387Z,6.40
2024-01-31T02:10:47.568Z,6.40
2024-01-31T02:11:49.648Z,6.40
2024-01-31T02:12:51.644Z,6.40
2024-01-31T02:13:53.669Z,6.40
2024-01-31T02:14:57.295Z,6.40
2024-01-31T02:15:59.954Z,6.50
2024-01-31T02:17:01.913Z,6.50
2024-01-31T02:18:05.277Z,6.40
2024-01-31T02:19:07.410Z,6.40
2024-01-31T02:20:09.852Z,6.50
2024-01-31T02:21:12.145Z,6.50
2024-01-31T02:22:22.884Z,6.50
2024-01-31T02:23:25.265Z,6.50
2024-01-31T02:24:27.191Z,6.50
2024-01-31T02:25:29.196Z,6.50
2024-01-31T02:26:32.290Z,6.50
2024-01-31T02:27:34.162Z,6.50
2024-01-31T02:28:37.073Z,6.50
2024-01-31T02:29:39.640Z,6.50
2024-01-31T02:30:41.962Z,6.50
2024-01-31T02:31:43.930Z,6.50
2024-01-31T02:32:46.003Z,6.50
2024-01-31T02:33:48.258Z,6.50
2024-01-31T02:34:50.314Z,6.50
2024-01-31T02:35:52.366Z,6.50
2024-01-31T02:36:54.269Z,6.50
2024-01-31T02:37:58.782Z,6.50
2024-01-31T02:39:00.703Z,6.50
2024-01-31T02:40:03.399Z,6.40
2024-01-31T02:41:05.394Z,6.50
2024-01-31T02:42:09.123Z,6.40
2024-01-31T02:43:11.324Z,6.40
2024-01-31T02:44:13.360Z,6.40
2024-01-31T02:45:15.478Z,6.30
2024-01-31T02:46:17.635Z,6.30
2024-01-31T02:47:19.528Z,6.30
2024-01-31T02:48:21.579Z,6.30
2024-01-31T02:49:23.828Z,6.30
2024-01-31T02:50:28.067Z,6.30
2024-01-31T02:51:30.058Z,6.30
2024-01-31T02:52:32.127Z,6.30
2024-01-31T02:53:34.320Z,6.30
2024-01-31T02:54:36.234Z,6.30
2024-01-31T02:55:38.662Z,6.30
2024-01-31T02:56:40.652Z,6.30
2024-01-31T02:57:42.741Z,6.30
2024-01-31T02:58:44.795Z,6.30
2024-01-31T02:59:48.248Z,6.30
2024-01-31T03:00:50.303Z,6.30
2024-01-31T03:01:52.761Z,6.30
2024-01-31T03:02:54.739Z,6.30
2024-01-31T03:03:56.806Z,6.30
2024-01-31T03:04:58.934Z,6.30
2024-01-31T03:06:01.511Z,6.40
2024-01-31T03:07:03.742Z,6.30
2024-01-31T03:08:05.799Z,6.40
2024-01-31T03:09:07.808Z,6.30
2024-01-31T03:10:11.045Z,6.30
2024-01-31T03:11:13.350Z,6.30
2024-01-31T03:12:15.208Z,6.30
2024-01-31T03:13:17.205Z,6.30
2024-01-31T03:14:19.095Z,6.30
2024-01-31T03:15:21.048Z,6.30
2024-01-31T03:16:22.986Z,6.30
2024-01-31T03:17:24.977Z,6.30
2024-01-31T03:18:26.973Z,6.30
2024-01-31T03:19:30.848Z,6.30
2024-01-31T03:20:35.579Z,6.30
2024-01-31T03:21:37.684Z,6.30
2024-01-31T03:22:39.726Z,6.30
2024-01-31T03:23:42.240Z,6.30
2024-01-31T03:24:44.803Z,6.30
2024-01-31T03:25:46.753Z,6.30
2024-01-31T03:26:48.965Z,6.30
2024-01-31T03:27:51.016Z,6.30
2024-01-31T03:28:53.107Z,6.30
2024-01-31T03:29:55.081Z,6.40
2024-01-31T03:30:57.259Z,6.40
2024-01-31T03:31:59.507Z,6.40
2024-01-31T03:33:01.585Z,6.30
2024-01-31T03:34:03.647Z,6.30
2024-01-31T03:35:05.817Z,6.30
2024-01-31T03:36:11.828Z,6.40
2024-01-31T03:37:13.814Z,6.40
2024-01-31T03:38:15.809Z,6.40
2024-01-31T03:39:20.144Z,6.30
2024-01-31T03:40:22.160Z,6.30
2024-01-31T03:41:24.347Z,6.30
2024-01-31T03:42:28.239Z,6.30
2024-01-31T03:43:30.209Z,6.30
2024-01-31T03:44:33.532Z,6.30
2024-01-31T03:45:38.968Z,6.30
2024-01-31T03:46:43.250Z,6.30
2024-01-31T03:47:45.839Z,6.30
2024-01-31T03:48:48.156Z,6.40
2024-01-31T03:49:52.547Z,6.40
2024-01-31T03:50:54.617Z,6.40
2024-01-31T03:51:56.530Z,6.40
2024-01-31T03:52:58.800Z,6.40
2024-01-31T03:54:00.796Z,6.40
2024-01-31T03:55:03.086Z,6.40
2024-01-31T03:56:05.569Z,6.40
2024-01-31T03:57:07.561Z,6.30
2024-01-31T03:58:09.510Z,6.30
2024-01-31T03:59:11.970Z,6.30
2024-01-31T04:00:14.378Z,6.30
2024-01-31T04:01:18.196Z,6.30
2024-01-31T04:02:20.255Z,6.40
2024-01-31T04:03:22.688Z,6.40
2024-01-31T04:04:24.754Z,6.40
2024-01-31T04:05:27.022Z,6.40
2024-01-31T04:06:29.292Z,6.40
2024-01-31T04:07:31.755Z,6.40
2024-01-31T04:08:33.880Z,6.30
2024-01-31T04:09:36.147Z,6.30
2024-01-31T04:10:38.434Z,6.30
2024-01-31T04:11:40.551Z,6.30
2024-01-31T04:12:43.064Z,6.30
2024-01-31T04:13:46.038Z,6.30
2024-01-31T04:14:48.917Z,6.30
2024-01-31T04:15:50.851Z,6.30
2024-01-31T04:16:52.777Z,6.40
2024-01-31T04:17:54.722Z,6.40
2024-01-31T04:18:56.782Z,6.40
2024-01-31T04:19:58.756Z,6.40
2024-01-31T04:21:00.702Z,6.40
2024-01-31T04:22:03.333Z,6.40
2024-01-31T04:23:05.979Z,6.40
2024-01-31T04:24:07.967Z,6.40
2024-01-31T04:25:09.957Z,6.40
2024-01-31T04:26:11.873Z,6.30
2024-01-31T04:27:14.142Z,6.30
2024-01-31T04:28:16.794Z,6.30
2024-01-31T04:29:19.039Z,6.30
2024-01-31T04:30:21.040Z,6.30
2024-01-31T04:31:23.086Z,6.30
2024-01-31T04:32:25.482Z,6.30
2024-01-31T04:33:27.531Z,6.30
2024-01-31T04:34:30.855Z,6.30
2024-01-31T04:35:33.216Z,6.30
2024-01-31T04:36:35.251Z,6.30
2024-01-31T04:37:37.591Z,6.30
2024-01-31T04:38:39.570Z,6.30
2024-01-31T04:39:41.515Z,6.30
2024-01-31T04:40:43.492Z,6.30
2024-01-31T04:41:48.229Z,6.30
2024-01-31T04:42:53.284Z,6.40
2024-01-31T04:43:56.684Z,6.40
2024-01-31T04:44:59.195Z,6.40
2024-01-31T04:46:01.300Z,6.40
2024-01-31T04:47:04.224Z,6.40
2024-01-31T04:48:06.785Z,6.40
2024-01-31T04:49:09.062Z,6.40
2024-01-31T04:50:13.352Z,6.40
2024-01-31T04:51:15.435Z,6.40
2024-01-31T04:52:17.335Z,6.30
2024-01-31T04:53:19.345Z,6.30
2024-01-31T04:54:21.358Z,6.30
2024-01-31T04:55:23.619Z,6.30
2024-01-31T04:56:26.031Z,6.30
2024-01-31T04:57:28.016Z,6.30
2024-01-31T04:58:30.060Z,6.30
2024-01-31T04:59:32.085Z,6.30
2024-01-31T05:00:34.030Z,6.30
2024-01-31T05:01:36.059Z,6.30
2024-01-31T05:02:38.028Z,6.40
2024-01-31T05:03:40.527Z,6.40
2024-01-31T05:04:42.664Z,6.40
2024-01-31T05:05:44.784Z,6.40
2024-01-31T05:06:47.378Z,6.30
2024-01-31T05:07:49.294Z,6.30
2024-01-31T05:08:51.886Z,6.30
2024-01-31T05:09:53.838Z,6.30
2024-01-31T05:10:56.297Z,6.30
2024-01-31T05:11:58.257Z,6.30
2024-01-31T05:13:00.293Z,6.30
2024-01-31T05:14:02.249Z,6.30
2024-01-31T05:15:05.779Z,6.30
2024-01-31T05:16:11.107Z,6.30
2024-01-31T05:17:17.119Z,6.30
2024-01-31T05:18:19.386Z,6.30
2024-01-31T05:19:21.663Z,6.30
2024-01-31T05:20:23.726Z,6.30
2024-01-31T05:21:25.652Z,6.30
2024-01-31T05:22:27.765Z,6.30
2024-01-31T05:23:29.978Z,6.30
2024-01-31T05:24:31.962Z,6.30
2024-01-31T05:25:33.996Z,6.30
2024-01-31T05:26:36.054Z,6.30
2024-01-31T05:27:38.078Z,6.30
2024-01-31T05:28:40.978Z,6.30
2024-01-31T05:29:43.113Z,6.30
2024-01-31T05:30:45.195Z,6.20
2024-01-31T05:31:47.345Z,6.20
2024-01-31T05:32:49.415Z,6.20
2024-01-31T05:33:52.837Z,6.20
2024-01-31T05:34:54.991Z,6.20
2024-01-31T05:35:59.731Z,6.20
2024-01-31T05:37:01.738Z,6.20
2024-01-31T05:38:04.413Z,6.20
2024-01-31T05:39:06.361Z,6.20
2024-01-31T05:40:09.624Z,6.20
2024-01-31T05:41:11.634Z,6.20
2024-01-31T05:42:13.663Z,6.30
2024-01-31T05:43:15.654Z,6.20
2024-01-31T05:44:17.662Z,6.30
2024-01-31T05:45:19.730Z,6.20
2024-01-31T05:46:21.608Z,6.30
2024-01-31T05:47:25.325Z,6.20
2024-01-31T05:48:27.330Z,6.30
2024-01-31T05:49:29.329Z,6.20
2024-01-31T05:50:31.580Z,6.30
2024-01-31T05:51:33.634Z,6.30
2024-01-31T05:52:35.726Z,6.30
2024-01-31T05:53:38.354Z,6.30
2024-01-31T05:54:40.564Z,6.30
2024-01-31T05:55:42.658Z,6.40
2024-01-31T05:56:44.608Z,6.30
2024-01-31T05:57:50.549Z,6.30
2024-01-31T05:58:52.512Z,6.30
2024-01-31T05:59:54.517Z,6.30
2024-01-31T06:00:56.718Z,6.30
2024-01-31T06:01:59.833Z,6.30
2024-01-31T06:03:01.847Z,6.30
2024-01-31T06:04:05.323Z,6.30
2024-01-31T06:05:07.947Z,6.30
2024-01-31T06:06:09.928Z,6.30
2024-01-31T06:07:13.699Z,6.30
2024-01-31T06:08:15.921Z,6.30
2024-01-31T06:09:17.966Z,6.20
2024-01-31T06:10:21.115Z,6.20
2024-01-31T06:11:23.258Z,6.20
2024-01-31T06:12:25.292Z,6.20
2024-01-31T06:13:28.859Z,6.20
2024-01-31T06:14:31.076Z,6.20
2024-01-31T06:15:33.007Z,6.20
2024-01-31T06:16:35.251Z,6.20
2024-01-31T06:17:39.233Z,6.20
2024-01-31T06:18:41.518Z,6.20
2024-01-31T06:19:43.572Z,6.20
2024-01-31T06:20:45.724Z,6.20
2024-01-31T06:21:47.770Z,6.20
2024-01-31T06:22:50.320Z,6.20
2024-01-31T06:23:52.882Z,6.20
2024-01-31T06:24:54.819Z,6.20
2024-01-31T06:25:56.745Z,6.20
2024-01-31T06:26:58.639Z,6.30
2024-01-31T06:28:00.626Z,6.30
2024-01-31T06:29:02.540Z,6.30
2024-01-31T06:30:05.928Z,6.30
2024-01-31T06:31:28.951Z,6.30
2024-01-31T06:32:33.749Z,6.40
2024-01-31T06:33:37.310Z,6.40
2024-01-31T06:34:39.431Z,6.40
2024-01-31T06:35:48.758Z,6.40
2024-01-31T06:36:50.819Z,6.40
2024-01-31T06:37:52.757Z,6.40
2024-01-31T06:38:54.812Z,6.50
2024-01-31T06:39:56.889Z,6.50
2024-01-31T06:40:59.801Z,6.50
2024-01-31T06:42:01.847Z,6.50
2024-01-31T06:43:04.382Z,6.50
2024-01-31T06:44:06.880Z,6.50
2024-01-31T06:45:09.572Z,6.50
2024-01-31T06:46:12.266Z,6.50
2024-01-31T06:47:14.444Z,6.50
2024-01-31T06:48:16.561Z,6.60
2024-01-31T06:49:18.786Z,6.60
2024-01-31T06:50:21.776Z,6.60
2024-01-31T06:51:23.896Z,6.60
2024-01-31T06:52:26.214Z,6.60
2024-01-31T06:53:30.325Z,6.60
2024-01-31T06:54:32.285Z,6.60
2024-01-31T06:55:34.294Z,6.60
2024-01-31T06:56:37.039Z,6.60
2024-01-31T06:57:39.093Z,6.60
2024-01-31T06:58:41.233Z,6.70
2024-01-31T06:59:43.179Z,6.70
2024-01-31T07:00:45.119Z,6.70
2024-01-31T07:01:47.540Z,6.70
2024-01-31T07:02:49.775Z,6.70
2024-01-31T07:03:51.940Z,6.70
2024-01-31T07:04:54.000Z,6.70
2024-01-31T07:05:55.966Z,6.70
2024-01-31T07:06:57.923Z,6.70
2024-01-31T07:08:00.089Z,6.70
2024-01-31T07:09:02.057Z,6.70
2024-01-31T07:10:04.891Z,6.70
2024-01-31T07:11:09.273Z,6.70
2024-01-31T07:12:11.328Z,6.70
2024-01-31T07:13:13.338Z,6.70
2024-01-31T07:14:15.769Z,6.70
2024-01-31T07:15:19.417Z,6.70
2024-01-31T07:16:21.574Z,6.70
2024-01-31T07:17:24.380Z,6.70
2024-01-31T07:18:26.386Z,6.70
2024-01-31T07:19:29.092Z,6.70
2024-01-31T07:20:31.169Z,6.70
2024-01-31T07:21:33.226Z,6.70
2024-01-31T07:22:37.237Z,6.60
2024-01-31T07:23:40.218Z,6.60
2024-01-31T07:24:42.859Z,6.60
2024-01-31T07:25:44.869Z,6.70
2024-01-31T07:26:48.229Z,6.70
2024-01-31T07:27:51.339Z,6.70
2024-01-31T07:28:53.615Z,6.70
2024-01-31T07:29:55.818Z,6.70
2024-01-31T07:30:57.993Z,6.70
2024-01-31T07:32:00.152Z,6.70
2024-01-31T07:33:02.211Z,6.70
2024-01-31T07:34:04.255Z,6.70
2024-01-31T07:35:08.718Z,6.70
2024-01-31T07:36:11.042Z,6.70
2024-01-31T07:37:13.110Z,6.70
2024-01-31T07:38:16.183Z,6.70
2024-01-31T07:39:18.888Z,6.70
2024-01-31T07:40:20.967Z,6.70
2024-01-31T07:41:22.971Z,6.70
2024-01-31T07:42:25.078Z,6.70
2024-01-31T07:43:27.161Z,6.70
2024-01-31T07:44:31.864Z,6.70
2024-01-31T07:45:34.835Z,6.70
2024-01-31T07:46:36.866Z,6.70
2024-01-31T07:47:40.006Z,6.70
2024-01-31T07:48:42.867Z,6.70
2024-01-31T07:49:45.217Z,6.80
2024-01-31T07:50:47.436Z,6.70
2024-01-31T07:51:54.039Z,6.80
2024-01-31T07:52:55.955Z,6.80
2024-01-31T07:53:59.699Z,6.80
2024-01-31T07:55:03.504Z,6.80
2024-01-31T07:56:06.232Z,6.70
2024-01-31T07:57:08.384Z,6.70
2024-01-31T07:58:10.535Z,6.80
2024-01-31T07:59:12.794Z,6.80
2024-01-31T08:00:15.064Z,6.80
2024-01-31T08:01:17.317Z,6.80
2024-01-31T08:02:19.582Z,6.80
2024-01-31T08:03:21.807Z,6.80
2024-01-31T08:04:24.070Z,6.80
2024-01-31T08:05:26.098Z,6.80
2024-01-31T08:06:28.250Z,6.80
2024-01-31T08:07:30.297Z,6.80
2024-01-31T08:08:32.321Z,6.80
2024-01-31T08:09:34.309Z,6.80
2024-01-31T08:10:36.463Z,6.80
2024-01-31T08:11:44.371Z,6.80
2024-01-31T08:12:48.150Z,6.80
2024-01-31T08:13:50.103Z,6.80
2024-01-31T08:14:52.126Z,6.80
2024-01-31T08:15:54.220Z,6.90
2024-01-31T08:16:57.045Z,6.90
2024-01-31T08:17:59.061Z,6.90
2024-01-31T08:19:01.527Z,6.90
2024-01-31T08:20:05.318Z,6.90
2024-01-31T08:21:08.077Z,6.90
2024-01-31T08:22:12.537Z,6.90
2024-01-31T08:23:14.867Z,6.90
2024-01-31T08:24:17.169Z,6.90
2024-01-31T08:25:19.618Z,6.90
2024-01-31T08:26:23.483Z,6.90
2024-01-31T08:27:25.809Z,6.90
2024-01-31T08:28:27.984Z,6.90
2024-01-31T08:29:30.134Z,6.90
2024-01-31T08:30:32.270Z,6.90
2024-01-31T08:31:34.203Z,6.90
2024-01-31T08:32:36.481Z,6.90
2024-01-31T08:33:38.775Z,6.90
2024-01-31T08:34:40.990Z,7.00
2024-01-31T08:35:44.724Z,7.00
2024-01-31T08:36:46.662Z,7.00
2024-01-31T08:37:49.854Z,7.00
2024-01-31T08:38:52.236Z,7.00
2024-01-31T08:39:54.450Z,7.00
2024-01-31T08:40:56.822Z,7.00
2024-01-31T08:41:58.727Z,7.00
2024-01-31T08:43:01.120Z,7.00
2024-01-31T08:44:03.435Z,7.00
2024-01-31T08:45:09.527Z,7.00
2024-01-31T08:46:12.566Z,7.00
2024-01-31T08:47:18.896Z,7.00
2024-01-31T08:48:22.054Z,7.00
2024-01-31T08:49:24.171Z,7.10
2024-01-31T08:50:26.668Z,7.10
2024-01-31T08:51:28.707Z,7.10
2024-01-31T08:52:30.985Z,7.10
2024-01-31T08:53:33.399Z,7.10
2024-01-31T08:54:35.391Z,7.10
2024-01-31T08:55:37.849Z,7.10
2024-01-31T08:56:40.502Z,7.10
2024-01-31T08:57:43.174Z,7.10
2024-01-31T08:58:45.389Z,7.10
2024-01-31T08:59:47.394Z,7.10
2024-01-31T09:00:51.724Z,7.10
2024-01-31T09:01:53.819Z,7.10
2024-01-31T09:13:48.686Z,7.10
2024-01-31T09:31:45.241Z,7.30
2024-01-31T09:32:47.589Z,7.30
2024-01-31T09:39:38.106Z,7.40
2024-01-31T09:40:40.093Z,7.40
2024-01-31T09:41:42.239Z,7.40
2024-01-31T09:42:47.472Z,7.40
2024-01-31T09:43:49.473Z,7.40
2024-01-31T09:44:51.974Z,7.50
2024-01-31T09:45:56.595Z,7.40
2024-01-31T09:47:00.459Z,7.50
2024-01-31T09:48:02.941Z,7.50
2024-01-31T09:49:05.162Z,7.50
2024-01-31T09:50:11.232Z,7.50
2024-01-31T09:51:15.726Z,7.50
2024-01-31T09:52:19.735Z,7.50
2024-01-31T09:53:23.885Z,7.50
2024-01-31T09:54:27.656Z,7.60
2024-01-31T09:55:30.924Z,7.60
2024-01-31T09:56:35.594Z,7.60
2024-01-31T09:57:39.561Z,7.60
2024-01-31T09:58:45.014Z,7.60
2024-01-31T09:59:47.863Z,7.60
2024-01-31T10:00:56.023Z,7.60
2024-01-31T10:02:00.845Z,7.60
2024-01-31T10:03:03.252Z,7.70
2024-01-31T10:04:05.534Z,7.70
2024-01-31T10:05:08.160Z,7.70
2024-01-31T10:06:12.717Z,7.70
2024-01-31T10:07:31.975Z,7.70
2024-01-31T10:08:34.224Z,7.70
2024-01-31T10:09:36.140Z,7.70
2024-01-31T10:10:41.102Z,7.70
2024-01-31T10:11:48.653Z,7.70
2024-01-31T10:12:50.834Z,7.80
2024-01-31T10:13:52.950Z,7.80
2024-01-31T10:14:58.324Z,7.80
2024-01-31T10:16:00.558Z,7.80
2024-01-31T10:17:03.589Z,7.80
2024-01-31T10:18:06.163Z,7.80
2024-01-31T10:19:08.335Z,7.80
2024-01-31T10:20:13.001Z,7.80
2024-01-31T10:21:20.740Z,7.80
2024-01-31T10:22:24.294Z,7.80
2024-01-31T10:23:27.436Z,7.90
2024-01-31T10:24:29.592Z,7.90
2024-01-31T10:25:32.196Z,7.90
2024-01-31T10:26:37.560Z,7.90
2024-01-31T10:27:40.106Z,7.90
2024-01-31T10:28:45.679Z,7.90
2024-01-31T10:29:54.549Z,7.90
2024-01-31T10:30:59.423Z,7.90
2024-01-31T10:32:02.444Z,7.90
2024-01-31T10:33:05.687Z,7.90
2024-01-31T10:34:08.810Z,7.90
2024-01-31T10:35:26.928Z,7.90
2024-01-31T10:38:49.078Z,7.90
2024-01-31T10:39:53.891Z,7.90
2024-01-31T10:40:58.384Z,7.90
2024-01-31T10:42:02.146Z,7.90
2024-01-31T10:43:05.220Z,7.90
2024-01-31T10:44:12.432Z,7.90
2024-01-31T10:45:14.917Z,7.90
2024-01-31T10:46:17.091Z,8.00
2024-01-31T10:47:19.054Z,8.00
2024-01-31T10:48:21.774Z,8.00
2024-01-31T10:49:23.992Z,8.00
2024-01-31T10:50:26.052Z,8.00
2024-01-31T10:51:30.209Z,8.00
2024-01-31T10:52:35.888Z,8.00
2024-01-31T10:53:39.305Z,8.00
2024-01-31T10:54:49.734Z,8.00
2024-01-31T10:55:57.064Z,8.00
2024-01-31T10:57:00.394Z,8.00
2024-01-31T10:58:03.383Z,8.00
2024-01-31T10:59:08.838Z,8.00
2024-01-31T11:00:22.017Z,8.00
2024-01-31T11:01:30.888Z,8.00
2024-01-31T11:02:34.987Z,8.00
2024-01-31T11:03:37.229Z,8.00
2024-01-31T11:04:40.492Z,8.00
2024-01-31T11:05:43.638Z,8.00
2024-01-31T11:06:52.768Z,8.00
2024-01-31T11:07:58.554Z,8.00
2024-01-31T11:09:01.400Z,8.00
2024-01-31T11:10:07.117Z,8.10
2024-01-31T11:11:12.562Z,8.10
2024-01-31T11:12:17.937Z,8.10
2024-01-31T11:13:20.106Z,8.10
2024-01-31T11:14:31.297Z,8.10
2024-01-31T11:15:36.695Z,8.20
2024-01-31T11:16:39.106Z,8.20
2024-01-31T11:17:46.366Z,8.20
2024-01-31T11:18:53.384Z,8.20
2024-01-31T11:20:01.217Z,8.20
2024-01-31T11:21:08.253Z,8.20
2024-01-31T11:22:10.449Z,8.20
2024-01-31T11:23:24.252Z,8.20
2024-01-31T11:24:30.564Z,8.20
2024-01-31T11:25:38.696Z,8.20
2024-01-31T11:26:41.624Z,8.20
2024-01-31T11:27:43.984Z,8.20
2024-01-31T11:28:47.255Z,8.20
2024-01-31T11:29:52.689Z,8.30
2024-01-31T11:30:55.391Z,8.30
2024-01-31T11:31:58.971Z,8.30
2024-01-31T11:33:05.044Z,8.30
2024-01-31T11:34:07.570Z,8.30
2024-01-31T11:35:09.739Z,8.30
2024-01-31T11:36:12.038Z,8.30
2024-01-31T11:37:14.109Z,8.30
2024-01-31T11:38:17.216Z,8.30
2024-01-31T11:39:19.191Z,8.30
2024-01-31T11:40:21.195Z,8.30
2024-01-31T11:41:24.387Z,8.30
2024-01-31T11:42:26.893Z,8.30
2024-01-31T11:43:28.960Z,8.30
2024-01-31T11:44:31.839Z,8.30
2024-01-31T11:45:34.069Z,8.30
2024-01-31T11:46:36.446Z,8.30
2024-01-31T11:47:40.575Z,8.30
2024-01-31T11:48:46.247Z,8.30
2024-01-31T11:49:51.095Z,8.30
2024-01-31T11:50:55.224Z,8.30
2024-01-31T11:51:57.520Z,8.30
2024-01-31T11:52:59.735Z,8.30
2024-01-31T11:54:02.132Z,8.30
2024-01-31T11:55:04.692Z,8.30
2024-01-31T11:56:07.441Z,8.30
2024-01-31T11:57:09.696Z,8.30
2024-01-31T11:58:12.216Z,8.40
2024-01-31T11:59:14.594Z,8.40
2024-01-31T12:00:19.529Z,8.40
2024-01-31T12:01:21.904Z,8.40
2024-01-31T12:02:25.290Z,8.40
2024-01-31T12:03:27.309Z,8.40
2024-01-31T12:04:29.674Z,8.40
2024-01-31T12:05:32.031Z,8.30
2024-01-31T12:06:35.541Z,8.40
2024-01-31T12:07:37.950Z,8.40
2024-01-31T12:08:47.363Z,8.40
2024-01-31T12:09:49.489Z,8.30
2024-01-31T12:10:51.652Z,8.40
2024-01-31T12:11:54.176Z,8.40
2024-01-31T12:12:59.473Z,8.30
2024-01-31T12:14:02.416Z,8.30
2024-01-31T12:15:05.996Z,8.30
2024-01-31T12:16:10.291Z,8.30
2024-01-31T12:17:26.438Z,8.30
2024-01-31T12:18:28.720Z,8.30
2024-01-31T12:19:34.267Z,8.30
2024-01-31T12:20:39.379Z,8.30
2024-01-31T12:21:43.556Z,8.30
2024-01-31T12:22:46.531Z,8.30
2024-01-31T12:23:48.489Z,8.30
2024-01-31T12:24:50.459Z,8.30
2024-01-31T12:25:52.430Z,8.30
2024-01-31T12:26:56.181Z,8.30
2024-01-31T12:27:58.261Z,8.30
2024-01-31T12:29:00.877Z,8.30
2024-01-31T12:30:03.182Z,8.30
2024-01-31T12:31:05.420Z,8.30
2024-01-31T12:32:08.265Z,8.30
2024-01-31T12:33:10.341Z,8.30
2024-01-31T12:34:12.322Z,8.30
2024-01-31T12:35:14.924Z,8.30
2024-01-31T12:36:17.179Z,8.30
2024-01-31T12:37:19.416Z,8.30
2024-01-31T12:38:21.678Z,8.30
2024-01-31T12:39:23.747Z,8.30
2024-01-31T12:40:27.247Z,8.30
2024-01-31T12:41:29.566Z,8.30
2024-01-31T12:42:31.950Z,8.30
2024-01-31T12:43:34.697Z,8.30
2024-01-31T12:44:37.290Z,8.30
2024-01-31T12:45:39.822Z,8.30
2024-01-31T12:46:42.285Z,8.30
2024-01-31T12:47:46.787Z,8.30
2024-01-31T12:48:51.290Z,8.30
2024-01-31T12:49:53.415Z,8.30
2024-01-31T12:50:57.458Z,8.30
2024-01-31T12:51:59.345Z,8.30
2024-01-31T12:53:01.452Z,8.30
2024-01-31T12:54:04.023Z,8.30
2024-01-31T12:55:06.619Z,8.30
2024-01-31T12:56:08.552Z,8.30
2024-01-31T12:57:10.558Z,8.20
2024-01-31T12:58:12.393Z,8.20
2024-01-31T12:59:19.929Z,8.30
2024-01-31T13:00:23.203Z,8.30
2024-01-31T13:01:25.736Z,8.30
2024-01-31T13:02:27.933Z,8.30
2024-01-31T13:03:30.501Z,8.30
2024-01-31T13:04:32.933Z,8.30
2024-01-31T13:05:35.778Z,8.20
2024-01-31T13:06:39.779Z,8.30
2024-01-31T13:07:42.433Z,8.30
2024-01-31T13:08:45.346Z,8.20
2024-01-31T13:09:47.850Z,8.20
2024-01-31T13:10:49.884Z,8.20
2024-01-31T13:11:52.090Z,8.20
2024-01-31T13:12:54.357Z,8.20
2024-01-31T13:13:56.338Z,8.20
2024-01-31T13:14:58.600Z,8.20
2024-01-31T13:16:00.779Z,8.20
2024-01-31T13:17:03.357Z,8.20
2024-01-31T13:18:06.282Z,8.20
2024-01-31T13:19:09.664Z,8.30
2024-01-31T13:20:13.053Z,8.30
2024-01-31T13:21:15.178Z,8.40
2024-01-31T13:22:17.295Z,8.40
2024-01-31T13:23:19.564Z,8.40
2024-01-31T13:24:22.545Z,8.40
2024-01-31T13:25:24.845Z,8.40
2024-01-31T13:26:26.902Z,8.40
2024-01-31T13:27:29.037Z,8.40
2024-01-31T13:28:31.420Z,8.50
2024-01-31T13:29:33.751Z,8.50
2024-01-31T13:30:35.988Z,8.50
2024-01-31T13:31:39.356Z,8.40
2024-01-31T13:32:42.116Z,8.40
2024-01-31T13:33:46.066Z,8.40
2024-01-31T13:34:48.462Z,8.40
2024-01-31T13:35:50.504Z,8.40
2024-01-31T13:36:53.319Z,8.40
2024-01-31T13:37:56.573Z,8.40
2024-01-31T13:39:00.135Z,8.40
2024-01-31T13:40:02.802Z,8.40
2024-01-31T13:41:04.886Z,8.40
2024-01-31T13:42:09.059Z,8.40
2024-01-31T13:43:13.000Z,8.50
2024-01-31T13:44:15.117Z,8.50
2024-01-31T13:45:17.483Z,8.50
2024-01-31T13:46:19.608Z,8.50
2024-01-31T13:47:23.345Z,8.50
2024-01-31T13:48:25.343Z,8.40
2024-01-31T13:49:27.488Z,8.40
2024-01-31T13:50:29.837Z,8.50
2024-01-31T13:51:31.866Z,8.50
2024-01-31T13:52:33.862Z,8.50
2024-01-31T13:53:36.917Z,8.50
2024-01-31T13:54:38.884Z,8.50
2024-01-31T13:55:41.251Z,8.50
2024-01-31T13:56:43.443Z,8.50
2024-01-31T13:57:45.502Z,8.50
2024-01-31T13:58:48.684Z,8.50
2024-01-31T13:59:50.771Z,8.50
2024-01-31T14:00:52.781Z,8.50
2024-01-31T14:01:54.919Z,8.50
2024-01-31T14:02:56.897Z,8.50
2024-01-31T14:03:58.990Z,8.50
2024-01-31T14:05:01.008Z,8.50
2024-01-31T14:06:03.390Z,8.50
2024-01-31T14:07:05.602Z,8.50
2024-01-31T14:08:08.253Z,8.60
2024-01-31T14:09:10.192Z,8.50
2024-01-31T14:10:12.300Z,8.60
2024-01-31T14:11:14.561Z,8.60
2024-01-31T14:12:16.643Z,8.60
2024-01-31T14:13:19.131Z,8.60
2024-01-31T14:14:21.617Z,8.60
2024-01-31T14:15:23.717Z,8.60
2024-01-31T14:16:25.628Z,8.60
2024-01-31T14:17:27.655Z,8.60
2024-01-31T14:18:30.018Z,8.60
2024-01-31T14:19:32.273Z,8.60
2024-01-31T14:20:34.485Z,8.60
2024-01-31T14:21:36.505Z,8.70
2024-01-31T14:22:56.566Z,8.70
2024-01-31T14:24:12.350Z,8.70
2024-01-31T14:25:18.754Z,8.70
2024-01-31T14:26:20.860Z,8.70
2024-01-31T14:27:23.000Z,8.70
2024-01-31T14:28:27.600Z,8.70
2024-01-31T14:29:29.493Z,8.80
2024-01-31T14:30:31.570Z,8.70
2024-01-31T14:31:34.371Z,8.80
2024-01-31T14:32:36.486Z,8.70
2024-01-31T14:33:42.120Z,8.80